Time;durP1;ratioP1;P1;durP2;ratioP2;P2;SDS_P1;SDS_P2;PMS_P1;PMS_P2;Temp;Humidity;BMP_temperature;BMP_pressure;BME280_temperature;BME280_humidity;BME280_pressure;Samples;Min_cycle;Max_cycle;Signal;HPM_P1;HPM_P2
2021/11/25 00:01:36;;;;;;;66.75;32.10;;;;;;;-142.75;100.00;77838.19;4946779;29;20537;-67
2021/11/25 00:04:02;;;;;;;69.63;32.50;;;;;;;-142.75;100.00;77824.41;4947715;29;20037;-67
2021/11/25 00:06:27;;;;;;;69.80;33.88;;;;;;;-142.75;100.00;77820.47;4948353;28;20301;-67
2021/11/25 00:08:52;;;;;;;69.20;33.22;;;;;;;-142.75;100.00;77838.19;4951086;28;20112;-67
2021/11/25 00:11:17;;;;;;;74.55;33.80;;;;;;;-142.75;100.00;77830.31;4950343;28;20032;-67
2021/11/25 00:13:43;;;;;;;67.50;32.17;;;;;;;-142.75;100.00;77816.53;4950929;29;20089;-67
2021/11/25 00:16:08;;;;;;;70.60;33.03;;;;;;;-142.75;100.00;77806.69;4950956;29;20060;-67
2021/11/25 00:18:33;;;;;;;72.13;33.50;;;;;;;-142.75;100.00;77818.50;4950794;28;20035;-68
2021/11/25 00:20:59;;;;;;;71.68;34.13;;;;;;;-142.75;100.00;77822.44;4950224;28;20054;-67
2021/11/25 00:23:24;;;;;;;79.30;33.77;;;;;;;-142.75;100.00;77826.38;4951414;29;20077;-68
2021/11/25 00:25:49;;;;;;;72.55;34.58;;;;;;;-142.75;100.00;77812.59;4950589;28;20368;-67
2021/11/25 00:28:15;;;;;;;74.50;34.95;;;;;;;-142.75;100.00;77800.78;4951063;28;20512;-67
2021/11/25 00:30:40;;;;;;;80.80;35.42;;;;;;;-142.75;100.00;77812.59;4949891;28;20034;-67
2021/11/25 00:33:06;;;;;;;76.38;34.90;;;;;;;-142.75;100.00;77800.78;4950805;28;20030;-67
2021/11/25 00:35:31;;;;;;;68.95;31.95;;;;;;;-142.75;100.00;77783.06;4950726;28;20052;-67
2021/11/25 00:37:56;;;;;;;72.53;34.53;;;;;;;-142.75;100.00;77814.56;4950460;28;20023;-68
2021/11/25 00:40:22;;;;;;;77.82;34.03;;;;;;;-142.75;100.00;77800.78;4949703;28;20532;-67
2021/11/25 00:42:47;;;;;;;71.55;34.95;;;;;;;-142.75;100.00;77812.59;4951069;29;20070;-67
2021/11/25 00:45:15;;;;;;;74.90;33.63;;;;;;;-142.75;100.00;77822.44;4950716;29;20042;-67
2021/11/25 00:47:40;;;;;;;78.70;36.40;;;;;;;-142.75;100.00;77816.53;4950505;28;20046;-67
2021/11/25 00:50:08;;;;;;;75.25;33.95;;;;;;;-142.75;100.00;77846.06;4949546;28;20439;-67
2021/11/25 00:52:34;;;;;;;68.17;32.03;;;;;;;-142.75;100.00;77838.19;4950881;28;20078;-67
2021/11/25 00:54:59;;;;;;;76.85;34.33;;;;;;;-142.75;100.00;77855.91;4950254;29;20440;-67
2021/11/25 00:57:24;;;;;;;69.50;32.67;;;;;;;-142.75;100.00;77850.00;4950385;28;20023;-66
2021/11/25 00:59:51;;;;;;;76.57;36.17;;;;;;;-142.75;100.00;77848.03;4949572;28;20281;-66
2021/11/25 01:02:17;;;;;;;75.73;35.13;;;;;;;-142.75;100.00;77838.19;4950690;28;20278;-67
2021/11/25 01:04:42;;;;;;;70.05;31.45;;;;;;;-142.75;100.00;77840.16;4950096;28;20397;-67
2021/11/25 01:07:08;;;;;;;73.03;31.98;;;;;;;-142.75;100.00;77836.22;4948947;29;20460;-67
2021/11/25 01:09:33;;;;;;;69.20;32.58;;;;;;;-142.75;100.00;77838.19;4950176;28;20031;-67
2021/11/25 01:12:01;;;;;;;72.87;32.73;;;;;;;-142.75;100.00;77850.00;4949509;29;20023;-67
2021/11/25 01:14:32;;;;;;;66.50;32.67;;;;;;;-142.75;100.00;77848.03;4950448;28;20389;-66
2021/11/25 01:16:57;;;;;;;67.27;32.97;;;;;;;-142.75;100.00;77844.09;4949728;28;20019;-67
2021/11/25 01:19:23;;;;;;;61.42;29.25;;;;;;;-142.75;100.00;77846.06;4950018;28;20061;-66
2021/11/25 01:21:48;;;;;;;66.80;33.45;;;;;;;-142.75;100.00;77867.72;4949756;29;20024;-67
2021/11/25 01:24:14;;;;;;;71.20;32.80;;;;;;;-142.75;100.00;77842.13;4950388;29;20023;-67
2021/11/25 01:26:39;;;;;;;64.43;30.90;;;;;;;-142.75;100.00;77857.88;4949999;29;20034;-67
2021/11/25 01:29:04;;;;;;;65.20;30.52;;;;;;;-142.75;100.00;77844.09;4949959;28;20560;-67
2021/11/25 01:31:29;;;;;;;64.37;30.27;;;;;;;-142.75;100.00;77863.78;4948968;29;20059;-67
2021/11/25 01:33:55;;;;;;;65.17;32.23;;;;;;;-142.75;100.00;77853.94;4948373;29;20366;-67
2021/11/25 01:36:20;;;;;;;64.03;31.55;;;;;;;-142.75;100.00;77861.81;4949888;28;20031;-66
2021/11/25 01:38:45;;;;;;;64.43;31.10;;;;;;;-142.75;100.00;77848.03;4949618;28;20031;-67
2021/11/25 01:41:11;;;;;;;63.47;31.13;;;;;;;-142.75;100.00;77846.06;4948878;29;20271;-67
2021/11/25 01:43:38;;;;;;;67.43;31.52;;;;;;;-142.75;100.00;77848.03;4949692;29;20332;-67
2021/11/25 01:46:14;;;;;;;59.13;29.50;;;;;;;-142.75;100.00;77834.25;4949646;29;20098;-67
2021/11/25 01:48:40;;;;;;;62.17;31.33;;;;;;;-142.75;100.00;77834.25;4949485;28;20044;-67
2021/11/25 01:51:05;;;;;;;;;;;;;;;-142.75;100.00;77822.44;4949160;28;20028;-67
2021/11/25 01:53:30;;;;;;;55.50;28.47;;;;;;;-142.75;100.00;77824.41;4950075;28;19971;-67
2021/11/25 01:55:57;;;;;;;58.35;28.70;;;;;;;-142.75;100.00;77828.34;4949673;28;20039;-67
2021/11/25 01:58:22;;;;;;;54.30;28.17;;;;;;;-142.75;100.00;77816.53;4949433;28;20027;-66
2021/11/25 02:00:53;;;;;;;60.55;31.10;;;;;;;-142.75;100.00;77814.56;4948962;29;20146;-66
2021/11/25 02:03:20;;;;;;;60.83;29.57;;;;;;;-142.75;100.00;77785.03;4949522;28;20027;-66
2021/11/25 02:05:45;;;;;;;55.37;28.10;;;;;;;-142.75;100.00;77783.06;4949463;29;21470;-67
2021/11/25 02:08:11;;;;;;;57.45;30.10;;;;;;;-142.75;100.00;77788.97;4949152;28;20098;-67
2021/11/25 02:10:39;;;;;;;55.58;28.10;;;;;;;-142.75;100.00;77787.00;4948529;29;20031;-66
2021/11/25 02:13:05;;;;;;;55.83;28.23;;;;;;;-142.75;100.00;77790.94;4947725;29;20480;-67
2021/11/25 02:15:34;;;;;;;60.30;28.73;;;;;;;-142.75;100.00;77788.97;4949039;29;20114;-66
2021/11/25 02:18:02;;;;;;;59.27;28.00;;;;;;;-142.75;100.00;77785.03;4949215;28;20027;-66
2021/11/25 02:20:39;;;;;;;54.50;28.77;;;;;;;-142.75;100.00;77790.94;4948295;28;20057;-66
2021/11/25 02:23:06;;;;;;;47.83;28.00;;;;;;;-142.75;100.00;77798.81;4949581;28;20053;-67
2021/11/25 02:25:31;;;;;;;53.37;29.23;;;;;;;-142.75;100.00;77771.25;4948945;28;20035;-67
2021/11/25 02:27:57;;;;;;;55.60;29.20;;;;;;;-142.75;100.00;77759.44;4948999;28;20033;-66
2021/11/25 02:30:22;;;;;;;56.90;30.02;;;;;;;-142.75;100.00;77739.75;4947357;29;20523;-67
2021/11/25 02:32:48;;;;;;;53.40;27.60;;;;;;;-142.75;100.00;77751.56;4949089;29;20019;-67
2021/11/25 02:35:26;;;;;;;58.42;29.17;;;;;;;-142.75;100.00;77771.25;4949083;29;20035;-67
2021/11/25 02:37:53;;;;;;;59.03;28.30;;;;;;;-142.75;100.00;77773.22;4947576;28;20119;-66
2021/11/25 02:40:24;;;;;;;54.97;28.77;;;;;;;-142.75;100.00;77779.13;4948099;28;20023;-67
2021/11/25 02:42:52;;;;;;;54.40;28.30;;;;;;;-142.75;100.00;77771.25;4947653;29;20036;-66
2021/11/25 02:45:20;;;;;;;50.70;26.33;;;;;;;-142.75;100.00;77767.31;4947783;29;20046;-67
2021/11/25 02:47:46;;;;;;;55.17;27.67;;;;;;;-142.75;100.00;77757.47;4947797;28;20045;-67
2021/11/25 02:50:14;;;;;;;51.60;27.50;;;;;;;-142.75;100.00;77747.63;4947829;28;20039;-67
2021/11/25 02:52:41;;;;;;;56.90;29.27;;;;;;;-142.75;100.00;77761.41;4949077;28;20085;-66
2021/11/25 02:55:08;;;;;;;55.30;28.43;;;;;;;-142.75;100.00;77759.44;4948490;28;20027;-67
2021/11/25 02:57:34;;;;;;;55.23;29.63;;;;;;;-142.75;100.00;77759.44;4948368;28;20027;-67
2021/11/25 02:59:59;;;;;;;54.40;27.73;;;;;;;-142.75;100.00;77755.50;4947613;28;20452;-67
2021/11/25 03:02:25;;;;;;;55.60;29.98;;;;;;;-142.75;100.00;77745.66;4948395;28;20023;-67
2021/11/25 03:04:51;;;;;;;55.22;27.90;;;;;;;-142.75;100.00;77737.78;4948569;29;20042;-67
2021/11/25 03:07:16;;;;;;;55.75;27.85;;;;;;;-142.75;100.00;77739.75;4948607;28;20053;-67
2021/11/25 03:09:41;;;;;;;58.47;30.05;;;;;;;-142.75;100.00;77737.78;4947676;28;20540;-66
2021/11/25 03:12:07;;;;;;;50.70;27.85;;;;;;;-142.75;100.00;77735.81;4948381;29;20029;-67
2021/11/25 03:14:32;;;;;;;54.05;28.70;;;;;;;-142.75;100.00;77743.69;4947943;28;20031;-67
2021/11/25 03:16:57;;;;;;;50.23;29.27;;;;;;;-142.75;100.00;77763.38;4948436;29;20027;-67
2021/11/25 03:19:22;;;;;;;52.90;27.60;;;;;;;-142.75;100.00;77761.41;4948150;28;20285;-67
2021/11/25 03:21:48;;;;;;;54.03;28.00;;;;;;;-142.75;100.00;77765.34;4948054;29;20034;-66
2021/11/25 03:24:13;;;;;;;56.97;28.30;;;;;;;-142.75;100.00;77757.47;4948759;28;20670;-67
2021/11/25 03:26:38;;;;;;;55.70;29.15;;;;;;;-142.75;100.00;77753.53;4948216;29;20097;-66
2021/11/25 03:29:04;;;;;;;56.63;29.38;;;;;;;-142.75;100.00;77747.63;4947762;28;20027;-66
2021/11/25 03:31:32;;;;;;;53.28;29.67;;;;;;;-142.75;100.00;77749.59;4947235;29;20499;-66
2021/11/25 03:34:00;;;;;;;59.13;29.73;;;;;;;-142.75;100.00;77747.63;4947797;28;20043;-66
2021/11/25 03:36:26;;;;;;;56.03;29.73;;;;;;;-142.75;100.00;77749.59;4948071;28;20022;-66
2021/11/25 03:38:52;;;;;;;58.40;29.38;;;;;;;-142.75;100.00;77761.41;4947606;28;20031;-66
2021/11/25 03:41:18;;;;;;;60.70;31.05;;;;;;;-142.75;100.00;77763.38;4946532;29;20108;-66
2021/11/25 03:43:44;;;;;;;57.43;31.10;;;;;;;-142.75;100.00;77767.31;4947759;28;20031;-66
2021/11/25 03:46:10;;;;;;;60.28;30.48;;;;;;;-142.75;100.00;77783.06;4947818;29;20114;-66
2021/11/25 03:48:35;;;;;;;56.83;29.65;;;;;;;-142.75;100.00;77775.19;4947982;28;20035;-67
2021/11/25 03:51:04;;;;;;;60.38;30.92;;;;;;;-142.75;100.00;77773.22;4947033;28;20070;-67
2021/11/25 03:53:30;;;;;;;58.47;30.53;;;;;;;-142.75;100.00;77779.13;4948505;28;20103;-66
2021/11/25 03:55:56;;;;;;;52.57;29.10;;;;;;;-142.75;100.00;77790.94;4946288;29;20039;-66
2021/11/25 03:58:21;;;;;;;59.25;31.60;;;;;;;-142.75;100.00;77787.00;4947487;28;20118;-67
2021/11/25 04:00:47;;;;;;;58.45;30.23;;;;;;;-142.75;100.00;77779.13;4947479;28;20055;-66
2021/11/25 04:03:13;;;;;;;57.03;29.80;;;;;;;-142.75;100.00;77765.34;4947533;28;20040;-67
2021/11/25 04:05:38;;;;;;;58.80;29.73;;;;;;;-142.75;100.00;77759.44;4947651;28;20550;-66
2021/11/25 04:08:04;;;;;;;58.60;30.50;;;;;;;-142.75;100.00;77767.31;4946406;28;20035;-66
2021/11/25 04:10:29;;;;;;;61.45;31.15;;;;;;;-142.75;100.00;77755.50;4945379;29;20019;-66
2021/11/25 04:12:55;;;;;;;56.63;30.15;;;;;;;-142.75;100.00;77763.38;4947618;28;20547;-67
2021/11/25 04:15:20;;;;;;;54.28;29.27;;;;;;;-142.75;100.00;77771.25;4946100;28;20031;-67
2021/11/25 04:17:46;;;;;;;63.17;31.40;;;;;;;-142.75;100.00;77771.25;4947872;28;20034;-66
2021/11/25 04:20:12;;;;;;;57.78;29.35;;;;;;;-142.75;100.00;77767.31;4946744;28;20027;-66
2021/11/25 04:22:38;;;;;;;68.27;31.90;;;;;;;-142.75;100.00;77775.19;4947983;28;20023;-67
2021/11/25 04:25:05;;;;;;;67.07;31.90;;;;;;;-142.75;100.00;77775.19;4947289;28;20034;-66
2021/11/25 04:27:30;;;;;;;71.27;33.63;;;;;;;-142.75;100.00;77769.28;4946139;29;20023;-67
2021/11/25 04:30:05;;;;;;;67.10;32.90;;;;;;;-142.75;100.00;77779.13;4946335;28;20898;-67
2021/11/25 04:35:48;;;;;;;67.33;31.93;;;;;;;-142.75;100.00;77781.09;4947977;29;20504;-66
2021/11/25 04:38:16;;;;;;;65.70;32.73;;;;;;;-142.75;100.00;77755.50;4947900;28;20112;-66
2021/11/25 04:40:53;;;;;;;63.63;33.10;;;;;;;-142.75;100.00;77757.47;5000829;23;20047;-72
2021/11/25 04:43:20;;;;;;;64.57;32.53;;;;;;;-142.75;100.00;77753.53;5001917;28;20057;-70
2021/11/25 04:45:47;;;;;;;66.73;33.00;;;;;;;-142.75;100.00;77753.53;4990716;28;20395;-69
2021/11/25 04:48:13;;;;;;;64.60;32.60;;;;;;;-142.75;100.00;77737.78;4985762;28;20057;-70
2021/11/25 04:50:39;;;;;;;;;;;;;;;-142.75;100.00;77727.94;5002949;28;20026;-70
2021/11/25 04:53:06;;;;;;;70.97;32.73;;;;;;;-142.75;100.00;77723.97;4989353;28;19959;-69
2021/11/25 04:55:32;;;;;;;69.33;32.50;;;;;;;-142.75;100.00;77725.97;4989108;28;20048;-70
2021/11/25 04:57:57;;;;;;;60.55;32.70;;;;;;;-142.75;100.00;77718.06;5008084;28;20479;-70
2021/11/25 05:00:23;;;;;;;68.43;34.28;;;;;;;-142.75;100.00;77722.00;5007631;28;20415;-70
2021/11/25 05:02:48;;;;;;;70.90;33.78;;;;;;;-142.75;100.00;77718.06;5008902;28;20067;-73
2021/11/25 05:05:14;;;;;;;66.25;33.55;;;;;;;-142.75;100.00;77716.09;4998852;28;20027;-70
2021/11/25 05:07:40;;;;;;;75.68;35.17;;;;;;;-142.75;100.00;77714.13;4989672;28;20062;-70
2021/11/25 05:10:07;;;;;;;74.57;34.80;;;;;;;-142.75;100.00;77712.16;4991530;28;20018;-69
2021/11/25 05:12:32;;;;;;;72.57;34.50;;;;;;;-142.75;100.00;77716.09;4990101;28;20117;-70
2021/11/25 05:14:58;;;;;;;76.93;35.78;;;;;;;-142.75;100.00;77718.06;4988974;28;20026;-72
2021/11/25 05:17:24;;;;;;;72.40;33.70;;;;;;;-142.75;100.00;77708.22;4987496;28;20022;-69
2021/11/25 05:19:49;;;;;;;72.10;34.58;;;;;;;-142.75;100.00;77720.03;4994084;28;20037;-68
2021/11/25 05:22:15;;;;;;;67.95;32.88;;;;;;;-142.75;100.00;77735.81;4996910;28;20437;-69
2021/11/25 05:24:40;;;;;;;74.10;33.75;;;;;;;-142.75;100.00;77727.94;4989343;28;20018;-70
2021/11/25 05:27:06;;;;;;;66.05;33.10;;;;;;;-142.75;100.00;77725.97;5000601;28;20026;-69
2021/11/25 05:29:31;;;;;;;77.07;36.42;;;;;;;-142.75;100.00;77731.88;4994159;28;20608;-70
2021/11/25 05:31:56;;;;;;;78.07;34.63;;;;;;;-142.75;100.00;77725.97;4991747;28;20399;-69
2021/11/25 05:34:21;;;;;;;80.53;35.72;;;;;;;-142.75;100.00;77727.94;5001430;28;20029;-70
2021/11/25 05:36:47;;;;;;;68.18;34.08;;;;;;;-142.75;100.00;77731.88;4996342;28;20404;-69
2021/11/25 05:39:13;;;;;;;73.23;34.03;;;;;;;-142.75;100.00;77737.78;4995557;28;20034;-69
2021/11/25 05:41:39;;;;;;;;;;;;;;;-142.75;100.00;77727.94;4995326;28;20281;-69
2021/11/25 05:44:05;;;;;;;68.47;31.90;;;;;;;-142.75;100.00;77735.81;4988551;28;19922;-71
2021/11/25 05:46:30;;;;;;;78.67;36.70;;;;;;;-142.75;100.00;77725.97;4988186;28;20041;-70
2021/11/25 05:48:56;;;;;;;75.25;35.08;;;;;;;-142.75;100.00;77716.09;4987121;28;20038;-69
2021/11/25 05:51:21;;;;;;;74.95;35.33;;;;;;;-142.75;100.00;77714.13;5006543;28;20025;-69
2021/11/25 05:53:47;;;;;;;77.25;36.50;;;;;;;-142.75;100.00;77710.19;5008550;28;20022;-71
2021/11/25 05:56:12;;;;;;;79.73;36.03;;;;;;;-142.75;100.00;77720.03;4995797;28;20054;-69
2021/11/25 05:58:37;;;;;;;71.10;35.10;;;;;;;-142.75;100.00;77714.13;5006173;28;20363;-70
2021/11/25 06:01:03;;;;;;;81.22;34.42;;;;;;;-142.75;100.00;77725.97;5007061;28;20022;-69
2021/11/25 06:03:28;;;;;;;81.37;37.10;;;;;;;-142.75;100.00;77737.78;5006020;28;20033;-70
2021/11/25 06:05:54;;;;;;;82.97;38.15;;;;;;;-142.75;100.00;77739.75;4997184;28;20288;-70
2021/11/25 06:08:19;;;;;;;77.15;36.90;;;;;;;-142.75;100.00;77743.69;5005290;28;20061;-73
2021/11/25 06:10:44;;;;;;;82.95;37.45;;;;;;;-142.75;100.00;77735.81;5005518;28;20113;-70
2021/11/25 06:13:10;;;;;;;82.82;36.75;;;;;;;-142.75;100.00;77731.88;5004701;28;20392;-69
2021/11/25 06:15:35;;;;;;;73.32;35.33;;;;;;;-142.75;100.00;77731.88;4990182;28;20026;-70
2021/11/25 06:18:00;;;;;;;76.40;35.27;;;;;;;-142.75;100.00;77727.94;4986607;28;20022;-70
2021/11/25 06:20:26;;;;;;;76.17;34.43;;;;;;;-142.75;100.00;77716.09;4999307;28;20329;-69
2021/11/25 06:22:54;;;;;;;72.88;34.17;;;;;;;-142.75;100.00;77714.13;5008050;28;20033;-69
2021/11/25 06:25:22;;;;;;;76.07;35.27;;;;;;;-142.75;100.00;77710.19;5006324;28;20045;-71
2021/11/25 06:27:48;;;;;;;83.13;35.43;;;;;;;-142.75;100.00;77700.34;5003910;28;20022;-70
2021/11/25 06:30:14;;;;;;;82.18;36.05;;;;;;;-142.75;100.00;77692.47;4987145;28;20066;-71
2021/11/25 06:32:42;;;;;;;72.23;35.23;;;;;;;-142.75;100.00;77692.47;4995318;28;20029;-70
2021/11/25 06:35:10;;;;;;;83.93;37.83;;;;;;;-142.75;100.00;77676.72;4996366;28;20030;-69
2021/11/25 06:37:40;;;;;;;73.70;35.43;;;;;;;-142.75;100.00;77684.59;4998852;28;20026;-68
2021/11/25 06:40:08;;;;;;;82.80;35.13;;;;;;;-142.75;100.00;77688.53;4996195;28;20026;-69
2021/11/25 06:42:33;;;;;;;82.93;36.43;;;;;;;-142.75;100.00;77678.69;4988117;28;20015;-70
2021/11/25 06:44:58;;;;;;;77.13;35.50;;;;;;;-142.75;100.00;77672.78;4988095;28;20419;-71
2021/11/25 06:47:24;;;;;;;78.82;34.45;;;;;;;-142.75;100.00;77678.69;4999346;28;20084;-69
2021/11/25 06:49:49;;;;;;;79.23;37.63;;;;;;;-142.75;100.00;77670.81;5001781;28;20399;-68
2021/11/25 06:52:15;;;;;;;81.15;36.05;;;;;;;-142.75;100.00;77666.88;4997666;28;20022;-69
2021/11/25 06:54:41;;;;;;;84.67;37.97;;;;;;;-142.75;100.00;77672.78;5002476;28;20022;-69
2021/11/25 06:57:06;;;;;;;82.33;35.90;;;;;;;-142.75;100.00;77668.84;5000586;28;20102;-69
2021/11/25 06:59:31;;;;;;;81.23;38.37;;;;;;;-142.75;100.00;77668.84;4987735;28;20277;-70
2021/11/25 07:01:58;;;;;;;86.40;38.15;;;;;;;-142.75;100.00;77668.84;5003426;28;20790;-69
2021/11/25 07:04:23;;;;;;;86.73;37.63;;;;;;;-142.75;100.00;77676.72;5007372;28;20059;-69
2021/11/25 07:06:48;;;;;;;76.03;35.55;;;;;;;-142.75;100.00;77670.81;4992712;28;20034;-69
2021/11/25 07:09:14;;;;;;;82.75;37.10;;;;;;;-142.75;100.00;77668.84;4987850;28;20025;-71
2021/11/25 07:11:39;;;;;;;78.45;37.25;;;;;;;-142.75;100.00;77676.72;4986910;28;20505;-68
2021/11/25 07:14:04;;;;;;;81.32;38.72;;;;;;;-142.75;100.00;77676.72;5001393;28;20053;-70
2021/11/25 07:16:30;;;;;;;86.03;38.15;;;;;;;-142.75;100.00;77688.53;5006949;28;20021;-70
2021/11/25 07:18:55;;;;;;;82.43;35.00;;;;;;;-142.75;100.00;77672.78;5005771;28;20036;-71
2021/11/25 07:21:20;;;;;;;81.80;36.70;;;;;;;-142.75;100.00;77674.75;5006381;28;20466;-68
2021/11/25 07:23:46;;;;;;;78.47;34.95;;;;;;;-142.75;100.00;77678.69;5007352;28;20212;-69
2021/11/25 07:26:11;;;;;;;84.53;37.23;;;;;;;-142.75;100.00;77672.78;4997234;28;20022;-70
2021/11/25 07:28:37;;;;;;;83.68;38.42;;;;;;;-142.75;100.00;77676.72;4995292;28;20363;-68
2021/11/25 07:31:03;;;;;;;78.45;35.95;;;;;;;-142.75;100.00;77676.72;5000580;28;20113;-69
2021/11/25 07:33:29;;;;;;;85.53;37.37;;;;;;;-142.75;100.00;77674.75;4989428;28;20548;-68
2021/11/25 07:35:54;;;;;;;80.18;37.47;;;;;;;-142.75;100.00;77670.81;5000097;28;20018;-69
2021/11/25 07:38:20;;;;;;;83.30;36.33;;;;;;;-142.75;100.00;77659.00;4986383;28;20025;-69
2021/11/25 07:40:48;;;;;;;80.40;37.13;;;;;;;-142.75;100.00;77653.09;4985830;28;20026;-69
2021/11/25 07:43:14;;;;;;;83.27;35.53;;;;;;;-142.75;100.00;77655.06;4985387;28;20027;-68
2021/11/25 07:45:40;;;;;;;;;;;;;;;-142.75;100.00;77657.03;4991263;28;20108;-68
2021/11/25 07:48:05;;;;;;;79.57;35.80;;;;;;;-142.75;100.00;77653.09;5005743;28;20000;-69
2021/11/25 07:50:31;;;;;;;74.65;34.60;;;;;;;-142.75;100.00;77655.06;4988304;28;20030;-69
2021/11/25 07:52:57;;;;;;;70.57;33.65;;;;;;;-142.75;100.00;77645.22;4986227;28;20121;-69
2021/11/25 07:55:24;;;;;;;77.80;35.27;;;;;;;-142.75;100.00;77645.22;5001396;28;20033;-69
2021/11/25 07:57:50;;;;;;;81.03;35.17;;;;;;;-142.75;100.00;77645.22;4987163;28;20026;-69
2021/11/25 08:00:16;;;;;;;79.75;35.63;;;;;;;-142.75;100.00;77647.19;4992718;28;20167;-68
2021/11/25 08:02:42;;;;;;;77.63;35.97;;;;;;;-142.75;100.00;77631.44;4994454;28;20496;-70
2021/11/25 08:05:08;;;;;;;67.35;32.25;;;;;;;-142.75;100.00;77625.53;4998393;28;20124;-68
2021/11/25 08:07:35;;;;;;;73.17;34.53;;;;;;;-142.75;100.00;77627.50;5002204;28;20113;-67
2021/11/25 08:10:00;;;;;;;72.70;33.40;;;;;;;-142.75;100.00;77621.59;4984565;28;20026;-69
2021/11/25 08:12:26;;;;;;;73.73;32.97;;;;;;;-142.75;100.00;77625.53;5002296;28;20028;-69
2021/11/25 08:14:51;;;;;;;72.55;34.05;;;;;;;-142.75;100.00;77629.47;4997675;28;20285;-69
2021/11/25 08:17:16;;;;;;;76.43;33.75;;;;;;;-142.75;100.00;77623.56;4988025;28;20079;-69
2021/11/25 08:19:42;;;;;;;73.45;33.95;;;;;;;-142.75;100.00;77619.63;4990186;28;20404;-68
2021/11/25 08:22:08;;;;;;;63.38;31.63;;;;;;;-142.75;100.00;77627.50;4988203;28;20026;-69
2021/11/25 08:24:33;;;;;;;72.50;34.08;;;;;;;-142.75;100.00;77631.44;4992457;28;20022;-68
2021/11/25 08:26:59;;;;;;;70.97;30.42;;;;;;;-142.75;100.00;77625.53;4998795;28;20484;-68
2021/11/25 08:29:25;;;;;;;63.30;29.70;;;;;;;-142.75;100.00;77617.66;4987722;28;20034;-69
2021/11/25 08:31:51;;;;;;;53.03;24.70;;;;;;;-142.75;100.00;77609.78;4995777;28;20479;-69
2021/11/25 08:34:16;;;;;;;62.08;24.95;;;;;;;-142.75;100.00;77601.91;4989821;28;20083;-69
2021/11/25 08:36:42;;;;;;;57.93;24.33;;;;;;;-142.75;100.00;77592.06;4999343;28;20025;-69
2021/11/25 08:39:07;;;;;;;52.28;23.85;;;;;;;-142.75;100.00;77594.03;5008766;28;20269;-68
2021/11/25 08:41:32;;;;;;;51.00;24.92;;;;;;;-142.75;100.00;77580.25;5006696;28;20034;-70
2021/11/25 08:43:58;;;;;;;52.63;24.27;;;;;;;-142.75;100.00;77570.41;5009011;28;20039;-68
2021/11/25 08:46:23;;;;;;;50.50;23.58;;;;;;;-142.75;100.00;77558.59;5004879;28;20026;-69
2021/11/25 08:48:49;;;;;;;49.70;23.38;;;;;;;-142.75;100.00;77548.75;4994690;28;20034;-68
2021/11/25 08:51:15;;;;;;;47.65;21.95;;;;;;;-142.75;100.00;77531.03;4988698;28;20065;-68
2021/11/25 08:53:40;;;;;;;44.90;21.67;;;;;;;-142.75;100.00;77519.22;4988627;28;20097;-68
2021/11/25 08:56:08;;;;;;;44.80;21.23;;;;;;;-142.75;100.00;77515.28;4989096;28;20041;-68
2021/11/25 08:58:34;;;;;;;43.13;19.43;;;;;;;-142.75;100.00;77527.09;4986894;28;20479;-67
2021/11/25 09:00:59;;;;;;;40.05;18.63;;;;;;;-142.75;100.00;77538.91;4999366;28;20033;-68
2021/11/25 09:03:24;;;;;;;38.27;17.73;;;;;;;-142.75;100.00;77529.06;5007057;28;20064;-68
2021/11/25 09:05:50;;;;;;;39.47;17.50;;;;;;;-142.75;100.00;77527.09;5008468;28;20273;-70
2021/11/25 09:08:15;;;;;;;32.03;16.27;;;;;;;-142.75;100.00;77523.16;5008550;28;20034;-69
2021/11/25 09:10:41;;;;;;;31.05;14.32;;;;;;;-142.75;100.00;77525.13;5007689;28;20120;-68
2021/11/25 09:13:06;;;;;;;27.45;13.98;;;;;;;-142.75;100.00;77519.22;5008139;28;20021;-69
2021/11/25 09:15:33;;;;;;;29.85;13.65;;;;;;;-142.75;100.00;77531.03;5006849;28;20079;-69
2021/11/25 09:18:00;;;;;;;25.23;12.87;;;;;;;-142.75;100.00;77534.97;5005520;28;20852;-68
2021/11/25 09:20:31;;;;;;;29.37;11.37;;;;;;;-142.75;100.00;77525.13;5007235;28;20033;-68
2021/11/25 09:22:57;;;;;;;24.73;10.30;;;;;;;-142.75;100.00;77531.03;5007147;28;20018;-68
2021/11/25 09:25:22;;;;;;;20.45;8.38;;;;;;;-142.75;100.00;77538.91;4988533;28;20038;-71
2021/11/25 09:27:48;;;;;;;18.23;7.68;;;;;;;-142.75;100.00;77531.03;4988706;28;20096;-69
2021/11/25 09:30:15;;;;;;;19.98;7.28;;;;;;;-142.75;100.00;77529.06;4995783;28;20028;-69
2021/11/25 09:32:40;;;;;;;18.67;7.55;;;;;;;-142.75;100.00;77515.28;4986659;28;20024;-68
2021/11/25 09:35:07;;;;;;;13.52;6.20;;;;;;;-142.75;100.00;77529.06;4990875;28;20083;-67
2021/11/25 09:37:33;;;;;;;19.83;6.87;;;;;;;-142.75;100.00;77519.22;4988890;28;20491;-72
2021/11/25 09:39:58;;;;;;;16.95;6.35;;;;;;;-142.75;100.00;77527.09;5005732;28;20337;-69
2021/11/25 09:42:24;;;;;;;11.73;4.78;;;;;;;-142.75;100.00;77519.22;5000413;28;20109;-68
2021/11/25 09:44:51;;;;;;;15.25;5.40;;;;;;;-142.75;100.00;77515.28;4986690;28;20498;-69
2021/11/25 09:47:16;;;;;;;15.63;5.15;;;;;;;-142.75;100.00;77511.34;4987412;28;20026;-68
2021/11/25 09:49:42;;;;;;;14.93;4.80;;;;;;;-142.75;100.00;77513.31;5003364;28;20037;-69
2021/11/25 09:52:08;;;;;;;12.57;5.35;;;;;;;-142.75;100.00;77499.53;5004531;28;20230;-69
2021/11/25 09:54:33;;;;;;;19.50;4.60;;;;;;;-142.75;100.00;77489.69;4997603;28;20023;-70
2021/11/25 09:56:59;;;;;;;19.90;4.85;;;;;;;-142.75;100.00;77489.69;4996132;28;20042;-68
2021/11/25 09:59:25;;;;;;;15.60;5.18;;;;;;;-142.75;100.00;77475.91;4998096;28;20030;-69
2021/11/25 10:01:51;;;;;;;13.87;4.73;;;;;;;-142.75;100.00;77466.03;5006251;28;20746;-69
2021/11/25 10:04:16;;;;;;;14.40;4.85;;;;;;;-142.75;100.00;77452.25;4992132;28;20033;-71
2021/11/25 10:06:56;;;;;;;14.40;4.78;;;;;;;-142.75;100.00;77442.41;4986615;28;20065;-70
2021/11/25 10:09:40;;;;;;;15.20;4.30;;;;;;;-142.75;100.00;77397.13;5000113;28;20117;-71
2021/11/25 10:12:34;;;;;;;13.85;3.97;;;;;;;-142.75;100.00;77357.75;4986328;28;20031;-69
2021/11/25 10:15:01;;;;;;;14.57;4.82;;;;;;;-142.75;100.00;77302.63;4991881;28;20026;-70
2021/11/25 10:17:50;;;;;;;18.05;3.45;;;;;;;-142.75;100.00;77255.38;5012771;28;20506;-69
2021/11/25 10:20:19;;;;;;;11.52;3.00;;;;;;;-142.75;100.00;77210.09;4995996;28;20031;-69
2021/11/25 10:23:03;;;;;;;11.90;3.30;;;;;;;-142.75;100.00;77172.69;4988024;28;20027;-69
2021/11/25 10:25:51;;;;;;;12.82;2.85;;;;;;;-142.75;100.00;77133.31;4989971;28;20038;-69
2021/11/25 10:28:27;;;;;;;11.10;2.72;;;;;;;-142.75;100.00;77101.81;5007032;28;20080;-69
2021/11/25 10:30:54;;;;;;;;;;;;;;;-142.75;100.00;77082.13;5004747;28;20042;-71
2021/11/25 10:33:23;;;;;;;10.20;3.08;;;;;;;-142.75;100.00;77074.25;5005889;28;19924;-69
2021/11/25 10:36:28;;;;;;;11.85;3.65;;;;;;;-142.75;100.00;77066.38;4994030;28;20042;-68
2021/11/25 10:38:59;;;;;;;17.95;3.13;;;;;;;-142.75;100.00;77080.16;5005057;28;20033;-68
2021/11/25 10:41:27;;;;;;;12.10;2.50;;;;;;;-142.75;100.00;77082.13;5005062;28;20022;-68
2021/11/25 10:44:03;;;;;;;7.72;1.85;;;;;;;-142.75;100.00;77086.06;5005629;28;20056;-68
2021/11/25 10:46:51;;;;;;;14.18;2.50;;;;;;;-142.75;100.00;77068.34;4994606;28;20026;-68
2021/11/25 10:49:18;;;;;;;9.48;1.67;;;;;;;-142.75;100.00;77013.22;4986882;28;20038;-68
2021/11/25 10:51:45;;;;;;;12.45;1.92;;;;;;;-142.75;100.00;76991.56;4994395;28;20502;-67
2021/11/25 10:54:17;;;;;;;8.52;1.30;;;;;;;-142.75;100.00;77028.97;5005626;28;20041;-69
2021/11/25 10:56:53;;;;;;;11.82;1.65;;;;;;;-142.75;100.00;77050.63;5006323;28;20474;-69
2021/11/25 10:59:36;;;;;;;8.88;1.25;;;;;;;-142.75;100.00;77074.25;5001491;28;20117;-69